Relevés horaires Chievres (Belgique)


Relevés horaires à Chievres - Mercredi 04 Oct. 2017
Heure UTC1 Température [°C] Vent [km/h] Hum. [%] Pres.4 [hPa] Visi. [Km] Nébu. [octa] Préc.5 [mm] Cond.
2m. Res. Ros. Dir.2 Vit. Moy. Raf.3
23:00 12.8 11.8 9.1 SO 11.1 -- 16.7 78 1019.2(-2.1/3h) 20 -- -- --
22:00 12.9 12.2 8.6 SO 9.3 -- 16.7 75 1020.3(-1.2/3h) 20 -- -- --
21:00 13.1 12.2 8.6 SO 11.1 -- 18.5 74 1020.7(-1.0/3h) 20 -- -- --
20:00 13.5 12.7 7.9 OSO 11.1 -- 18.5 69 1021.3(-0.5/3h) 20 -- -- --
19:00 13.2 12.6 8.0 OSO 9.3 -- 14.8 71 1021.6(-0.8/3h) 20 -- -- --
18:00 13.2 12.6 8.0 OSO 9.3 -- 18.5 71 1021.7(-0.9/3h) 20 -- -- --
17:00 13.8 13.3 7.9 OSO 9.3 -- 14.8 68 1022(-1.2/3h) 20 -- -- --
16:00 14.3 13.9 7.6 OSO 9.3 -- 16.7 64 1022.5(-0.9/3h) 20 -- -- --
16:00 14.3 13.9 7.6 OSO 9.3 -- 16.7 64 1022.5(-0.9/3h) 20 -- -- --
16:00 14.3 13.9 7.6 OSO 9.3 -- 16.7 64 1022.5(-0.9/3h) 20 -- -- --
16:00 14.3 13.9 7.6 OSO 9.3 -- 16.7 64 1022.5(-0.9/3h) 20 -- -- --
15:00 14.8 14.2 7.6 OSO 11.1 -- 18.5 62 1022.6(-1.5/3h) 20 -- -- --
15:00 14.8 14.2 7.6 OSO 11.1 -- 18.5 62 1022.6(-1.5/3h) 20 -- -- --
15:00 14.8 14.2 7.6 OSO 11.1 -- 18.5 62 1022.6(-1.5/3h) 20 -- -- --
15:00 14.8 14.2 7.6 OSO 11.1 -- 18.5 62 1022.6(-1.5/3h) 20 -- -- --
14:00 14.9 14.6 7.8 O 9.3 -- 16.7 62 1023.2(-1.2/3h) 18 -- -- --
14:00 14.9 14.6 7.8 O 9.3 -- 16.7 62 1023.2(-1.2/3h) 18 -- -- --
13:00 14.5 13.9 7.7 O 11.1 -- 18.5 64 1023.3(-1.3/3h) 19 -- -- --
13:00 14.5 13.9 7.7 O 11.1 -- 18.5 64 1023.3(-1.3/3h) 19 -- -- --
13:00 14.5 13.9 7.7 O 11.1 -- 18.5 64 1023.3(-1.3/3h) 19 -- -- --
12:00 14.3 13.9 7.9 OSO 9.3 -- 18.5 65 1024(-0.3/3h) 20 -- -- --
12:00 14.3 13.9 7.9 OSO 9.3 -- 18.5 65 1024(-0.3/3h) 20 -- -- --
12:00 14.3 13.9 7.9 OSO 9.3 -- 18.5 65 1024(-0.3/3h) 20 -- -- --
11:00 13.7 12.9 8.9 O 11.1 -- 18.5 73 1024.4(0.0/3h) 20 -- -- --

1 Coordinated Universal Time. Actuellement il est 21:00 locale et 19:00 UTC.

2 Le vent souffle depuis la direction indiquée vers la direction oposée.

3 Les rafales max. sont disponible 40 min après l'heure du relevé.

4 Pour les stations d'altitude (plus de 600m) le géopotentiel du niveau le plus proche de la pression obligatoire est indiqué.

5 Les stations disposant d'un diffuseur peuvent indiquer "trace". Cela signifie que des précipitations ont touchés le sol mais que la quantité est inférieure à 0.1 mm.

Récapitulatif de la journée
Température [°C] Vent [km/h] Ensoleillement4 [h] Precipitations totale5 [mm] Pression [Hpa]
Min1 Max.2 Moy.3 Max. Min Max.
-- 15.2 0 18.5 0 h 0 min 0 1019.2 1024.4

1 Température minimale relevée entre 18:00 UTC la veille et 18:00 UTC le jour donné.

2 Température maximale relevée entre 06:00 UTC le jour donné et 06:00 UTC le lendemain.

3 Vent moyen de la journée basé sur les relevés horaires.

4 Ensoleillement en heures relevé entre 06:00 UTC la veille et 06:00 UTC le jour donné.

5 Précipitations totales tombées entre 06:00 UTC la jour donné et 06:00 UTC le lendemain.

Graphiques horaires